sensor_id;sensor_type;location;lat;lon;timestamp;pressure;altitude;pressure_sealevel;temperature;humidity
30302;BME280;17111;52.130;5.028;2023-02-28T00:00:53;103316.16;;;15.94;47.45
30302;BME280;17111;52.130;5.028;2023-02-28T00:03:19;103314.44;;;15.93;47.93
30302;BME280;17111;52.130;5.028;2023-02-28T00:05:46;103310.91;;;15.92;47.87
30302;BME280;17111;52.130;5.028;2023-02-28T00:08:12;103310.91;;;15.92;48.18
30302;BME280;17111;52.130;5.028;2023-02-28T00:10:39;103307.34;;;15.92;48.18
30302;BME280;17111;52.130;5.028;2023-02-28T00:13:06;103309.16;;;15.91;47.88
30302;BME280;17111;52.130;5.028;2023-02-28T00:15:33;103305.63;;;15.91;48.00
30302;BME280;17111;52.130;5.028;2023-02-28T00:17:59;103306.47;;;15.91;47.93
30302;BME280;17111;52.130;5.028;2023-02-28T00:20:26;103313.63;;;15.91;47.28
30302;BME280;17111;52.130;5.028;2023-02-28T00:22:53;103319.00;;;15.91;47.53
30302;BME280;17111;52.130;5.028;2023-02-28T00:25:22;103319.09;;;15.89;47.21
30302;BME280;17111;52.130;5.028;2023-02-28T00:27:49;103309.25;;;15.90;47.93
30302;BME280;17111;52.130;5.028;2023-02-28T00:30:18;103309.25;;;15.90;47.20
30302;BME280;17111;52.130;5.028;2023-02-28T00:32:45;103307.53;;;15.89;47.27
30302;BME280;17111;52.130;5.028;2023-02-28T00:35:12;103308.38;;;15.89;47.57
30302;BME280;17111;52.130;5.028;2023-02-28T00:37:39;103310.19;;;15.89;47.16
30302;BME280;17111;52.130;5.028;2023-02-28T00:40:07;103304.84;;;15.89;47.32
30302;BME280;17111;52.130;5.028;2023-02-28T00:42:34;103302.22;;;15.87;47.41
30302;BME280;17111;52.130;5.028;2023-02-28T00:45:01;103304.91;;;15.87;48.13
30302;BME280;17111;52.130;5.028;2023-02-28T00:47:30;103312.94;;;15.87;47.50
30302;BME280;17111;52.130;5.028;2023-02-28T00:49:58;103311.22;;;15.86;47.92
30302;BME280;17111;52.130;5.028;2023-02-28T00:52:24;103311.22;;;15.86;48.20
30302;BME280;17111;52.130;5.028;2023-02-28T00:54:51;103304.13;;;15.85;48.02
30302;BME280;17111;52.130;5.028;2023-02-28T00:57:17;103305.94;;;15.85;48.35
30302;BME280;17111;52.130;5.028;2023-02-28T00:59:44;103307.66;;;15.86;47.86
30302;BME280;17111;52.130;5.028;2023-02-28T01:02:10;103312.16;;;15.85;48.04
30302;BME280;17111;52.130;5.028;2023-02-28T01:04:37;103313.97;;;15.85;48.27
30302;BME280;17111;52.130;5.028;2023-02-28T01:07:04;103303.28;;;15.85;47.85
30302;BME280;17111;52.130;5.028;2023-02-28T01:09:30;103305.09;;;15.84;47.65
30302;BME280;17111;52.130;5.028;2023-02-28T01:11:57;103308.69;;;15.83;47.33
30302;BME280;17111;52.130;5.028;2023-02-28T01:14:23;103306.97;;;15.82;48.10
30302;BME280;17111;52.130;5.028;2023-02-28T01:16:50;103312.31;;;15.82;48.33
30302;BME280;17111;52.130;5.028;2023-02-28T01:19:17;103312.31;;;15.82;48.28
30302;BME280;17111;52.130;5.028;2023-02-28T01:21:44;103314.13;;;15.82;47.44
30302;BME280;17111;52.130;5.028;2023-02-28T01:24:11;103310.59;;;15.81;47.50
30302;BME280;17111;52.130;5.028;2023-02-28T01:26:37;103313.25;;;15.81;47.35
30302;BME280;17111;52.130;5.028;2023-02-28T01:29:04;103307.91;;;15.81;48.09
30302;BME280;17111;52.130;5.028;2023-02-28T01:31:30;103302.56;;;15.81;47.60
30302;BME280;17111;52.130;5.028;2023-02-28T01:33:57;103304.38;;;15.81;47.83
30302;BME280;17111;52.130;5.028;2023-02-28T01:36:25;103305.28;;;15.79;48.17
30302;BME280;17111;52.130;5.028;2023-02-28T01:38:52;103302.63;;;15.79;48.33
30302;BME280;17111;52.130;5.028;2023-02-28T01:41:22;103303.56;;;15.78;48.36
30302;BME280;17111;52.130;5.028;2023-02-28T01:46:16;103294.69;;;15.78;47.92
30302;BME280;17111;52.130;5.028;2023-02-28T01:48:46;103288.47;;;15.77;48.00
30302;BME280;17111;52.130;5.028;2023-02-28T01:51:21;103298.22;;;15.78;47.67
30302;BME280;17111;52.130;5.028;2023-02-28T01:53:54;103296.50;;;15.77;47.78
30302;BME280;17111;52.130;5.028;2023-02-28T01:56:26;103297.47;;;15.76;47.87
30302;BME280;17111;52.130;5.028;2023-02-28T01:58:54;103290.28;;;15.77;48.18
30302;BME280;17111;52.130;5.028;2023-02-28T02:01:23;103289.44;;;15.76;48.38
30302;BME280;17111;52.130;5.028;2023-02-28T02:03:54;103290.28;;;15.77;48.01
30302;BME280;17111;52.130;5.028;2023-02-28T02:06:23;103295.66;;;15.77;48.26
30302;BME280;17111;52.130;5.028;2023-02-28T02:08:51;103292.88;;;15.78;48.14
30302;BME280;17111;52.130;5.028;2023-02-28T02:11:19;103283.13;;;15.77;47.93
30302;BME280;17111;52.130;5.028;2023-02-28T02:27:22;103267.09;;;15.77;47.72
30302;BME280;17111;52.130;5.028;2023-02-28T02:30:21;103272.53;;;15.76;48.50
30302;BME280;17111;52.130;5.028;2023-02-28T02:33:16;103264.50;;;15.76;48.02
30302;BME280;17111;52.130;5.028;2023-02-28T02:36:17;103266.22;;;15.77;48.30
30302;BME280;17111;52.130;5.028;2023-02-28T02:41:36;103278.75;;;15.76;48.31
30302;BME280;17111;52.130;5.028;2023-02-28T02:47:23;103279.59;;;15.77;47.80
30302;BME280;17111;52.130;5.028;2023-02-28T02:49:52;103268.03;;;15.76;48.24
30302;BME280;17111;52.130;5.028;2023-02-28T02:52:27;103273.44;;;15.75;47.74
30302;BME280;17111;52.130;5.028;2023-02-28T02:54:56;103271.72;;;15.74;47.55
30302;BME280;17111;52.130;5.028;2023-02-28T02:57:41;103272.59;;;15.74;48.57
30302;BME280;17111;52.130;5.028;2023-02-28T03:00:09;103270.00;;;15.73;47.53
30302;BME280;17111;52.130;5.028;2023-02-28T03:02:37;103270.00;;;15.73;48.22
30302;BME280;17111;52.130;5.028;2023-02-28T03:05:12;103266.47;;;15.72;48.50
30302;BME280;17111;52.130;5.028;2023-02-28T03:07:40;103270.97;;;15.72;48.57
30302;BME280;17111;52.130;5.028;2023-02-28T03:10:48;103274.66;;;15.69;48.71
30302;BME280;17111;52.130;5.028;2023-02-28T03:18:57;103271.03;;;15.70;47.80
30302;BME280;17111;52.130;5.028;2023-02-28T03:24:18;103271.88;;;15.71;48.14
30302;BME280;17111;52.130;5.028;2023-02-28T03:26:56;103272.94;;;15.68;47.67
30302;BME280;17111;52.130;5.028;2023-02-28T03:29:51;103272.97;;;15.67;48.65
30302;BME280;17111;52.130;5.028;2023-02-28T03:32:31;103270.25;;;15.68;47.89
30302;BME280;17111;52.130;5.028;2023-02-28T03:35:07;103271.09;;;15.69;48.83
30302;BME280;17111;52.130;5.028;2023-02-28T03:37:38;103268.50;;;15.67;48.75
30302;BME280;17111;52.130;5.028;2023-02-28T03:40:17;103264.97;;;15.67;48.09
30302;BME280;17111;52.130;5.028;2023-02-28T03:42:48;103271.16;;;15.67;47.73
30302;BME280;17111;52.130;5.028;2023-02-28T03:45:21;103269.44;;;15.66;47.84
30302;BME280;17111;52.130;5.028;2023-02-28T03:47:57;103271.25;;;15.66;48.69
30302;BME280;17111;52.130;5.028;2023-02-28T03:50:36;103263.25;;;15.66;48.35
30302;BME280;17111;52.130;5.028;2023-02-28T03:55:43;103277.47;;;15.66;47.91
30302;BME280;17111;52.130;5.028;2023-02-28T04:00:53;103277.47;;;15.66;48.31
30302;BME280;17111;52.130;5.028;2023-02-28T04:03:21;103280.13;;;15.66;48.62
30302;BME280;17111;52.130;5.028;2023-02-28T04:05:51;103273.94;;;15.66;48.60
30302;BME280;17111;52.130;5.028;2023-02-28T04:08:19;103277.56;;;15.65;48.43
30302;BME280;17111;52.130;5.028;2023-02-28T04:10:52;103280.13;;;15.66;48.50
30302;BME280;17111;52.130;5.028;2023-02-28T04:13:20;103275.75;;;15.65;48.46
30302;BME280;17111;52.130;5.028;2023-02-28T04:15:47;103282.91;;;15.65;48.62
30302;BME280;17111;52.130;5.028;2023-02-28T04:18:13;103283.75;;;15.65;47.93
30302;BME280;17111;52.130;5.028;2023-02-28T04:20:40;103286.47;;;15.64;49.00
30302;BME280;17111;52.130;5.028;2023-02-28T04:23:06;103284.69;;;15.64;48.67
30302;BME280;17111;52.130;5.028;2023-02-28T04:25:33;103283.78;;;15.64;47.99
30302;BME280;17111;52.130;5.028;2023-02-28T04:27:59;103289.22;;;15.62;47.64
30302;BME280;17111;52.130;5.028;2023-02-28T04:30:26;103292.75;;;15.63;47.93
30302;BME280;17111;52.130;5.028;2023-02-28T04:32:53;103292.84;;;15.61;48.61
30302;BME280;17111;52.130;5.028;2023-02-28T04:35:19;103283.97;;;15.61;48.93
30302;BME280;17111;52.130;5.028;2023-02-28T04:37:46;103292.91;;;15.60;48.70
30302;BME280;17111;52.130;5.028;2023-02-28T04:40:12;103280.44;;;15.60;48.20
30302;BME280;17111;52.130;5.028;2023-02-28T04:42:39;103284.88;;;15.60;47.98
30302;BME280;17111;52.130;5.028;2023-02-28T04:45:06;103284.03;;;15.59;48.84
30302;BME280;17111;52.130;5.028;2023-02-28T04:47:32;103290.31;;;15.58;48.84
30302;BME280;17111;52.130;5.028;2023-02-28T04:49:59;103288.59;;;15.57;47.78
30302;BME280;17111;52.130;5.028;2023-02-28T04:52:27;103283.25;;;15.57;48.24
30302;BME280;17111;52.130;5.028;2023-02-28T04:54:54;103289.56;;;15.56;48.95
30302;BME280;17111;52.130;5.028;2023-02-28T04:57:20;103298.50;;;15.55;49.00
30302;BME280;17111;52.130;5.028;2023-02-28T04:59:47;103293.16;;;15.55;47.85
30302;BME280;17111;52.130;5.028;2023-02-28T05:02:13;103297.63;;;15.54;48.20
30302;BME280;17111;52.130;5.028;2023-02-28T05:04:40;103291.44;;;15.54;47.99
30302;BME280;17111;52.130;5.028;2023-02-28T05:07:07;103284.34;;;15.53;48.12
30302;BME280;17111;52.130;5.028;2023-02-28T05:09:33;103287.97;;;15.52;48.89
30302;BME280;17111;52.130;5.028;2023-02-28T05:12:00;103280.88;;;15.51;47.82
30302;BME280;17111;52.130;5.028;2023-02-28T05:14:27;103283.66;;;15.49;48.07
30302;BME280;17111;52.130;5.028;2023-02-28T05:16:54;103276.56;;;15.48;47.82
30302;BME280;17111;52.130;5.028;2023-02-28T05:19:21;103286.41;;;15.48;47.82
30302;BME280;17111;52.130;5.028;2023-02-28T05:21:51;103283.78;;;15.46;47.77
30302;BME280;17111;52.130;5.028;2023-02-28T05:24:18;103296.19;;;15.47;48.03
30302;BME280;17111;52.130;5.028;2023-02-28T05:26:52;103285.50;;;15.47;48.31
30302;BME280;17111;52.130;5.028;2023-02-28T05:29:19;103291.81;;;15.46;47.94
30302;BME280;17111;52.130;5.028;2023-02-28T05:31:46;103298.97;;;15.46;47.50
30302;BME280;17111;52.130;5.028;2023-02-28T05:34:13;103298.97;;;15.46;47.52
30302;BME280;17111;52.130;5.028;2023-02-28T05:36:42;103297.25;;;15.45;48.14
30302;BME280;17111;52.130;5.028;2023-02-28T05:39:08;103294.56;;;15.45;48.39
30302;BME280;17111;52.130;5.028;2023-02-28T05:41:40;103290.19;;;15.44;48.41
30302;BME280;17111;52.130;5.028;2023-02-28T05:44:08;103291.94;;;15.43;47.30
30302;BME280;17111;52.130;5.028;2023-02-28T05:46:34;103287.56;;;15.42;48.24
30302;BME280;17111;52.130;5.028;2023-02-28T05:49:01;103298.25;;;15.42;47.44
30302;BME280;17111;52.130;5.028;2023-02-28T05:51:28;103294.72;;;15.42;47.82
30302;BME280;17111;52.130;5.028;2023-02-28T05:53:59;103292.13;;;15.40;48.02
30302;BME280;17111;52.130;5.028;2023-02-28T05:56:25;103293.94;;;15.40;47.24
30302;BME280;17111;52.130;5.028;2023-02-28T05:58:52;103295.72;;;15.39;46.98
30302;BME280;17111;52.130;5.028;2023-02-28T06:01:32;103296.66;;;15.38;48.09
30302;BME280;17111;52.130;5.028;2023-02-28T06:04:00;103297.53;;;15.39;47.45
30302;BME280;17111;52.130;5.028;2023-02-28T06:06:27;103295.81;;;15.38;47.03
30302;BME280;17111;52.130;5.028;2023-02-28T06:08:53;103303.91;;;15.36;47.06
30302;BME280;17111;52.130;5.028;2023-02-28T06:11:20;103307.44;;;15.37;47.79
30302;BME280;17111;52.130;5.028;2023-02-28T06:13:47;103301.38;;;15.33;47.23
30302;BME280;17111;52.130;5.028;2023-02-28T06:16:13;103305.88;;;15.33;46.86
30302;BME280;17111;52.130;5.028;2023-02-28T06:18:40;103305.94;;;15.31;47.03
30302;BME280;17111;52.130;5.028;2023-02-28T06:21:07;103306.88;;;15.30;47.45
30302;BME280;17111;52.130;5.028;2023-02-28T06:23:35;103306.97;;;15.28;46.57
30302;BME280;17111;52.130;5.028;2023-02-28T06:26:01;103299.88;;;15.27;47.62
30302;BME280;17111;52.130;5.028;2023-02-28T06:28:28;103306.09;;;15.28;46.51
30302;BME280;17111;52.130;5.028;2023-02-28T06:30:55;103303.47;;;15.26;46.74
30302;BME280;17111;52.130;5.028;2023-02-28T06:33:21;103319.50;;;15.26;47.41
30302;BME280;17111;52.130;5.028;2023-02-28T06:35:51;103313.41;;;15.24;47.03
30302;BME280;17111;52.130;5.028;2023-02-28T06:38:18;103310.72;;;15.24;47.07
30302;BME280;17111;52.130;5.028;2023-02-28T06:40:45;103316.94;;;15.25;47.34
30302;BME280;17111;52.130;5.028;2023-02-28T06:43:18;103319.66;;;15.23;47.47
30302;BME280;17111;52.130;5.028;2023-02-28T06:45:45;103325.91;;;15.24;46.50
30302;BME280;17111;52.130;5.028;2023-02-28T06:48:11;103317.06;;;15.22;46.68
30302;BME280;17111;52.130;5.028;2023-02-28T06:50:38;103324.22;;;15.21;47.10
30302;BME280;17111;52.130;5.028;2023-02-28T06:53:05;103329.56;;;15.21;46.76
30302;BME280;17111;52.130;5.028;2023-02-28T06:55:31;103329.56;;;15.21;46.78
30302;BME280;17111;52.130;5.028;2023-02-28T06:57:58;103331.28;;;15.22;47.41
30302;BME280;17111;52.130;5.028;2023-02-28T07:00:25;103340.16;;;15.23;46.74
30302;BME280;17111;52.130;5.028;2023-02-28T07:02:51;103335.69;;;15.23;46.55
30302;BME280;17111;52.130;5.028;2023-02-28T07:05:20;103336.59;;;15.24;47.29
30302;BME280;17111;52.130;5.028;2023-02-28T07:07:46;103338.31;;;15.25;47.68
30302;BME280;17111;52.130;5.028;2023-02-28T07:10:13;103342.78;;;15.24;46.81
30302;BME280;17111;52.130;5.028;2023-02-28T07:12:45;103333.81;;;15.25;47.06
30302;BME280;17111;52.130;5.028;2023-02-28T07:15:12;103332.00;;;15.26;47.69
30302;BME280;17111;52.130;5.028;2023-02-28T07:17:38;103333.72;;;15.27;47.72
30302;BME280;17111;52.130;5.028;2023-02-28T07:20:05;103339.03;;;15.28;46.60
30302;BME280;17111;52.130;5.028;2023-02-28T07:22:32;103347.03;;;15.28;47.89
30302;BME280;17111;52.130;5.028;2023-02-28T07:24:58;103340.75;;;15.29;47.80
30302;BME280;17111;52.130;5.028;2023-02-28T07:27:25;103338.06;;;15.29;47.01
30302;BME280;17111;52.130;5.028;2023-02-28T07:29:52;103341.59;;;15.30;47.91
30302;BME280;17111;52.130;5.028;2023-02-28T07:32:19;103335.31;;;15.31;47.20
30302;BME280;17111;52.130;5.028;2023-02-28T07:34:46;103329.97;;;15.31;46.86
30302;BME280;17111;52.130;5.028;2023-02-28T07:37:12;103330.84;;;15.31;47.05
30302;BME280;17111;52.130;5.028;2023-02-28T07:39:39;103331.72;;;15.32;47.78
30302;BME280;17111;52.130;5.028;2023-02-28T07:42:08;103330.78;;;15.33;47.19
30302;BME280;17111;52.130;5.028;2023-02-28T07:44:38;103338.78;;;15.33;47.10
30302;BME280;17111;52.130;5.028;2023-02-28T07:47:07;103333.38;;;15.35;47.54
30302;BME280;17111;52.130;5.028;2023-02-28T07:49:36;103328.09;;;15.33;46.93
30302;BME280;17111;52.130;5.028;2023-02-28T07:52:06;103330.69;;;15.35;47.44
30302;BME280;17111;52.130;5.028;2023-02-28T07:54:33;103331.56;;;15.35;47.05
30302;BME280;17111;52.130;5.028;2023-02-28T07:57:00;103335.97;;;15.36;47.47
30302;BME280;17111;52.130;5.028;2023-02-28T07:59:26;103328.03;;;15.35;48.05
30302;BME280;17111;52.130;5.028;2023-02-28T08:01:53;103333.38;;;15.35;47.15
30302;BME280;17111;52.130;5.028;2023-02-28T08:04:20;103326.22;;;15.35;47.07
30302;BME280;17111;52.130;5.028;2023-02-28T08:06:46;103328.88;;;15.35;47.98
30302;BME280;17111;52.130;5.028;2023-02-28T08:09:13;103335.13;;;15.36;47.98
30302;BME280;17111;52.130;5.028;2023-02-28T08:11:41;103338.72;;;15.35;48.22
30302;BME280;17111;52.130;5.028;2023-02-28T08:14:07;103344.91;;;15.35;47.38
30302;BME280;17111;52.130;5.028;2023-02-28T08:16:34;103340.53;;;15.34;48.17
30302;BME280;17111;52.130;5.028;2023-02-28T08:19:01;103339.56;;;15.35;48.28
30302;BME280;17111;52.130;5.028;2023-02-28T08:21:27;103341.38;;;15.35;47.79
30302;BME280;17111;52.130;5.028;2023-02-28T08:23:54;103336.03;;;15.35;47.40
30302;BME280;17111;52.130;5.028;2023-02-28T08:26:23;103340.47;;;15.36;48.35
30302;BME280;17111;52.130;5.028;2023-02-28T08:28:49;103346.66;;;15.36;48.12
30302;BME280;17111;52.130;5.028;2023-02-28T08:31:16;103352.00;;;15.36;48.14
30302;BME280;17111;52.130;5.028;2023-02-28T08:33:43;103355.47;;;15.38;48.14
30302;BME280;17111;52.130;5.028;2023-02-28T08:36:11;103347.44;;;15.38;47.11
30302;BME280;17111;52.130;5.028;2023-02-28T08:38:38;103345.63;;;15.39;47.32
30302;BME280;17111;52.130;5.028;2023-02-28T08:41:07;103344.78;;;15.38;47.38
30302;BME280;17111;52.130;5.028;2023-02-28T08:43:35;103344.72;;;15.40;47.95
30302;BME280;17111;52.130;5.028;2023-02-28T08:46:02;103343.78;;;15.41;47.36
30302;BME280;17111;52.130;5.028;2023-02-28T08:48:32;103345.50;;;15.42;48.15
30302;BME280;17111;52.130;5.028;2023-02-28T08:51:07;103341.00;;;15.42;47.44
30302;BME280;17111;52.130;5.028;2023-02-28T08:53:36;103352.50;;;15.44;47.84
30302;BME280;17111;52.130;5.028;2023-02-28T08:56:06;103349.84;;;15.44;47.21
30302;BME280;17111;52.130;5.028;2023-02-28T08:58:33;103344.50;;;15.44;47.25
30302;BME280;17111;52.130;5.028;2023-02-28T09:01:10;103348.97;;;15.44;47.69
30302;BME280;17111;52.130;5.028;2023-02-28T09:03:37;103347.06;;;15.46;47.26
30302;BME280;17111;52.130;5.028;2023-02-28T09:06:04;103344.50;;;15.44;47.96
30302;BME280;17111;52.130;5.028;2023-02-28T09:08:31;103340.00;;;15.45;48.21
30302;BME280;17111;52.130;5.028;2023-02-28T09:10:58;103346.22;;;15.45;48.12
30302;BME280;17111;52.130;5.028;2023-02-28T09:13:27;103342.69;;;15.45;47.70
30302;BME280;17111;52.130;5.028;2023-02-28T09:15:54;103344.50;;;15.44;47.72
30302;BME280;17111;52.130;5.028;2023-02-28T09:18:20;103357.84;;;15.44;48.08
30302;BME280;17111;52.130;5.028;2023-02-28T09:20:47;103349.84;;;15.44;48.03
30302;BME280;17111;52.130;5.028;2023-02-28T09:23:13;103351.56;;;15.45;47.91
30302;BME280;17111;52.130;5.028;2023-02-28T09:25:52;103357.00;;;15.44;48.01
30302;BME280;17111;52.130;5.028;2023-02-28T09:28:20;103353.38;;;15.45;47.81
30302;BME280;17111;52.130;5.028;2023-02-28T09:30:49;103355.94;;;15.46;47.63
30302;BME280;17111;52.130;5.028;2023-02-28T09:33:17;103357.69;;;15.47;47.67
30302;BME280;17111;52.130;5.028;2023-02-28T09:35:48;103356.81;;;15.47;47.60
30302;BME280;17111;52.130;5.028;2023-02-28T09:38:15;103348.75;;;15.48;48.52
30302;BME280;17111;52.130;5.028;2023-02-28T09:40:51;103350.56;;;15.48;47.46
30302;BME280;17111;52.130;5.028;2023-02-28T09:43:22;103367.50;;;15.47;48.50
30302;BME280;17111;52.130;5.028;2023-02-28T09:45:56;103353.13;;;15.49;47.40
30302;BME280;17111;52.130;5.028;2023-02-28T09:48:31;103368.31;;;15.49;48.57
30302;BME280;17111;52.130;5.028;2023-02-28T09:51:53;103357.63;;;15.49;48.51
30302;BME280;17111;52.130;5.028;2023-02-28T09:53:59;103366.50;;;15.49;48.65
30302;BME280;17111;52.130;5.028;2023-02-28T09:56:35;103357.63;;;15.49;48.52
30302;BME280;17111;52.130;5.028;2023-02-28T10:05:10;103366.41;;;15.51;48.04
30302;BME280;17111;52.130;5.028;2023-02-28T10:08:14;103362.88;;;15.50;47.26
30302;BME280;17111;52.130;5.028;2023-02-28T10:10:47;103362.81;;;15.52;47.22
30302;BME280;17111;52.130;5.028;2023-02-28T10:13:26;103366.41;;;15.51;47.22
30302;BME280;17111;52.130;5.028;2023-02-28T10:16:00;103356.44;;;15.54;47.54
30302;BME280;17111;52.130;5.028;2023-02-28T10:18:36;103360.91;;;15.54;47.80
30302;BME280;17111;52.130;5.028;2023-02-28T10:21:05;103353.72;;;15.56;48.03
30302;BME280;17111;52.130;5.028;2023-02-28T10:23:35;103355.44;;;15.57;47.87
30302;BME280;17111;52.130;5.028;2023-02-28T10:26:12;103352.66;;;15.59;47.74
30302;BME280;17111;52.130;5.028;2023-02-28T10:28:39;103341.84;;;15.62;48.10
30302;BME280;17111;52.130;5.028;2023-02-28T10:31:10;103354.13;;;15.66;47.69
30302;BME280;17111;52.130;5.028;2023-02-28T10:33:38;103347.78;;;15.68;47.04
30302;BME280;17111;52.130;5.028;2023-02-28T10:36:06;103346.69;;;15.72;46.95
30302;BME280;17111;52.130;5.028;2023-02-28T10:38:36;103338.47;;;15.75;47.72
30302;BME280;17111;52.130;5.028;2023-02-28T10:41:11;103341.81;;;15.81;46.93
30302;BME280;17111;52.130;5.028;2023-02-28T10:43:40;103350.47;;;15.86;46.93
30302;BME280;17111;52.130;5.028;2023-02-28T10:48:44;103342.66;;;15.98;47.14
30302;BME280;17111;52.130;5.028;2023-02-28T10:51:12;103337.06;;;16.03;47.20
30302;BME280;17111;52.130;5.028;2023-02-28T10:53:47;103335.72;;;16.12;46.33
30302;BME280;17111;52.130;5.028;2023-02-28T10:56:27;103335.50;;;16.16;46.37
30302;BME280;17111;52.130;5.028;2023-02-28T10:59:00;103334.47;;;16.19;46.81
30302;BME280;17111;52.130;5.028;2023-02-28T11:03:56;103330.63;;;16.24;46.76
30302;BME280;17111;52.130;5.028;2023-02-28T11:06:29;103320.69;;;16.26;46.37
30302;BME280;17111;52.130;5.028;2023-02-28T11:14:52;103316.66;;;16.35;46.28
30302;BME280;17111;52.130;5.028;2023-02-28T11:17:20;103313.91;;;16.37;45.76
30302;BME280;17111;52.130;5.028;2023-02-28T11:19:51;103313.56;;;16.43;46.29
30302;BME280;17111;52.130;5.028;2023-02-28T11:22:24;103317.97;;;16.44;46.51
30302;BME280;17111;52.130;5.028;2023-02-28T11:25:01;103301.75;;;16.47;45.81
30302;BME280;17111;52.130;5.028;2023-02-28T11:29:58;103301.31;;;16.54;46.12
30302;BME280;17111;52.130;5.028;2023-02-28T11:32:28;103294.09;;;16.57;46.21
30302;BME280;17111;52.130;5.028;2023-02-28T11:35:17;103293.03;;;16.59;46.32
30302;BME280;17111;52.130;5.028;2023-02-28T11:37:48;103292.72;;;16.65;45.75
30302;BME280;17111;52.130;5.028;2023-02-28T11:40:21;103288.06;;;16.69;46.00
30302;BME280;17111;52.130;5.028;2023-02-28T11:46:41;103284.91;;;16.78;46.20
30302;BME280;17111;52.130;5.028;2023-02-28T11:49:03;103291.81;;;16.82;45.55
30302;BME280;17111;52.130;5.028;2023-02-28T11:51:59;103284.47;;;16.86;46.12
30302;BME280;17111;52.130;5.028;2023-02-28T11:57:20;103275.13;;;16.93;46.00
30302;BME280;17111;52.130;5.028;2023-02-28T12:00:12;103265.97;;;16.97;45.80
30302;BME280;17111;52.130;5.028;2023-02-28T12:05:45;103264.59;;;17.06;45.72
30302;BME280;17111;52.130;5.028;2023-02-28T12:13:56;103263.00;;;17.17;45.34
30302;BME280;17111;52.130;5.028;2023-02-28T12:19:21;103256.31;;;17.24;45.77
30302;BME280;17111;52.130;5.028;2023-02-28T12:27:46;103255.44;;;17.40;45.14
30302;BME280;17111;52.130;5.028;2023-02-28T12:30:19;103260.63;;;17.43;45.15
30302;BME280;17111;52.130;5.028;2023-02-28T12:32:52;103264.09;;;17.45;45.33
30302;BME280;17111;52.130;5.028;2023-02-28T12:35:26;103255.94;;;17.46;45.15
30302;BME280;17111;52.130;5.028;2023-02-28T12:38:01;103249.53;;;17.49;45.36
30302;BME280;17111;52.130;5.028;2023-02-28T12:43:21;103244.75;;;17.54;44.82
30302;BME280;17111;52.130;5.028;2023-02-28T12:45:54;103244.59;;;17.57;45.01
30302;BME280;17111;52.130;5.028;2023-02-28T12:48:27;103241.78;;;17.59;44.84
30302;BME280;17111;52.130;5.028;2023-02-28T12:50:56;103231.75;;;17.62;44.95
30302;BME280;17111;52.130;5.028;2023-02-28T12:53:42;103237.88;;;17.64;45.03
30302;BME280;17111;52.130;5.028;2023-02-28T12:56:20;103227.81;;;17.68;44.82
30302;BME280;17111;52.130;5.028;2023-02-28T12:58:57;103238.25;;;17.72;44.92
30302;BME280;17111;52.130;5.028;2023-02-28T13:10:20;103221.38;;;17.86;44.83
30302;BME280;17111;52.130;5.028;2023-02-28T13:12:54;103223.00;;;17.89;44.81
30302;BME280;17111;52.130;5.028;2023-02-28T13:15:24;103218.31;;;17.92;44.71
30302;BME280;17111;52.130;5.028;2023-02-28T13:17:54;103210.19;;;17.94;44.64
30302;BME280;17111;52.130;5.028;2023-02-28T13:20:26;103217.06;;;17.98;44.67
30302;BME280;17111;52.130;5.028;2023-02-28T13:22:54;103208.91;;;17.99;44.37
30302;BME280;17111;52.130;5.028;2023-02-28T13:27:54;103212.28;;;18.03;44.09
30302;BME280;17111;52.130;5.028;2023-02-28T13:33:29;103195.88;;;18.08;44.24
30302;BME280;17111;52.130;5.028;2023-02-28T13:44:14;103200.22;;;18.10;44.06
30302;BME280;17111;52.130;5.028;2023-02-28T13:49:33;103199.13;;;18.13;44.35
30302;BME280;17111;52.130;5.028;2023-02-28T13:55:00;103189.28;;;18.13;44.18
30302;BME280;17111;52.130;5.028;2023-02-28T14:00:57;103188.41;;;18.13;44.20
30302;BME280;17111;52.130;5.028;2023-02-28T14:03:31;103183.81;;;18.15;44.17
30302;BME280;17111;52.130;5.028;2023-02-28T14:11:52;103182.84;;;18.16;44.12
30302;BME280;17111;52.130;5.028;2023-02-28T14:17:16;103171.25;;;18.15;43.48
30302;BME280;17111;52.130;5.028;2023-02-28T14:19:44;103170.28;;;18.16;43.44
30302;BME280;17111;52.130;5.028;2023-02-28T14:25:15;103173.06;;;18.15;43.11
30302;BME280;17111;52.130;5.028;2023-02-28T14:33:47;103167.81;;;18.13;42.74
30302;BME280;17111;52.130;5.028;2023-02-28T14:36:32;103167.81;;;18.13;42.09
30302;BME280;17111;52.130;5.028;2023-02-28T14:39:04;103173.19;;;18.13;42.51
30302;BME280;17111;52.130;5.028;2023-02-28T14:41:33;103166.06;;;18.12;42.84
30302;BME280;17111;52.130;5.028;2023-02-28T14:44:23;103167.88;;;18.12;42.31
30302;BME280;17111;52.130;5.028;2023-02-28T14:47:01;103163.50;;;18.11;42.48
30302;BME280;17111;52.130;5.028;2023-02-28T14:49:36;103172.41;;;18.11;43.06
30302;BME280;17111;52.130;5.028;2023-02-28T14:55:18;103160.13;;;18.07;42.49
30302;BME280;17111;52.130;5.028;2023-02-28T14:57:54;103155.72;;;18.06;42.85
30302;BME280;17111;52.130;5.028;2023-02-28T15:00:33;103163.00;;;18.04;42.50
30302;BME280;17111;52.130;5.028;2023-02-28T15:03:18;103163.13;;;18.03;42.92
30302;BME280;17111;52.130;5.028;2023-02-28T15:05:56;103169.44;;;18.02;43.12
30302;BME280;17111;52.130;5.028;2023-02-28T15:08:24;103173.97;;;18.01;43.01
30302;BME280;17111;52.130;5.028;2023-02-28T15:10:55;103162.44;;;17.99;42.73
30302;BME280;17111;52.130;5.028;2023-02-28T15:13:34;103170.69;;;17.96;43.07
30302;BME280;17111;52.130;5.028;2023-02-28T15:16:09;103167.25;;;17.94;43.00
30302;BME280;17111;52.130;5.028;2023-02-28T15:21:10;103168.47;;;17.88;42.95
30302;BME280;17111;52.130;5.028;2023-02-28T15:23:40;103166.94;;;17.84;42.81